Main page
METAR-TAF:

METAR-TAF

Airports :

Londrina Airport

Londrina, Paraná, Brazil

latitude: 23-20S, longitude: 051-08W, elevation: 569 m

Current weather observation

The report was made 54 minutes ago, at 15:00 UTC
Wind 14 kt from the East/Southeast
Temperature 30°C
Humidity 46%
Pressure 1019 hPa
Visibility 10 km or more
no clouds below 1500 m and no cumulonimbus

METAR: SBLO 161500Z 11014KT CAVOK 30/17 Q1019

Time: 12:54 (15:54 UTC)

Forecast

The report was made 6 hours and 24 minutes ago, at 09:30 UTC
Forecast valid from 16 at 12 UTC to 16 at 24 UTC
Wind 10 kt from the Southeast
Visibility 10 km or more
no clouds below 1500 m and no cumulonimbus
Becoming
from 16 at 14 UTC to 16 at 16 UTC
Visibility 10 km or more
Scattered clouds at a height of 4000 ft
Becoming
from 16 at 20 UTC to 16 at 22 UTC
Visibility 10 km or more
no clouds below 1500 m and no cumulonimbus

TAF: SBLO 160930Z 1612/1624 14010KT CAVOK TN21/1612Z TX32/1617Z BECMG 1614/1616 9999 SCT040 BECMG 1620/1622 CAVOK RMK PCX

Weather observations and forecasts of more than 4000 airports (METAR and TAF reports).

The available stations are represented by yellow and red dots on the map.

Hover mouse over dot to see the name of the station.

Then click to see weather observations and forecasts.

To change the map : click on the green buttons with a black cross to zoom in, on the green button with a dash to zoom out, or on the green arrows for adjacent maps.


METAR-TAF: